createdAt,value
2023-01-28T00:04:22.916Z,101088.16
2023-01-28T00:14:24.235Z,101072.28
2023-01-28T00:24:25.571Z,101063.19
2023-01-28T00:34:26.859Z,101068.38
2023-01-28T00:44:28.267Z,101068.25
2023-01-28T00:54:29.981Z,101059.50
2023-01-28T01:04:35.361Z,101058.97
2023-01-28T01:14:38.812Z,101063.72
2023-01-28T01:24:40.082Z,101077.44
2023-01-28T01:34:41.364Z,101068.16
2023-01-28T01:44:42.590Z,101071.69
2023-01-28T01:54:43.805Z,101076.66
2023-01-28T02:04:45.136Z,101074.88
2023-01-28T02:14:46.405Z,101070.81
2023-01-28T02:24:47.638Z,101076.88
2023-01-28T02:34:48.883Z,101067.50
2023-01-28T02:44:50.102Z,101061.25
2023-01-28T02:54:51.310Z,101068.97
2023-01-28T03:04:55.801Z,101076.78
2023-01-28T03:15:15.886Z,101077.72
2023-01-28T03:25:36.002Z,101077.91
2023-01-28T03:35:55.984Z,101089.81
2023-01-28T03:45:57.233Z,101091.53
2023-01-28T03:56:00.697Z,101103.56
2023-01-28T04:06:02.006Z,101111.03
2023-01-28T04:16:03.464Z,101111.31
2023-01-28T04:26:04.774Z,101124.06
2023-01-28T04:36:05.992Z,101129.19
2023-01-28T04:46:07.245Z,101126.75
2023-01-28T04:56:08.518Z,101123.13
2023-01-28T05:06:10.407Z,101129.97
2023-01-28T05:16:11.617Z,101133.56
2023-01-28T05:26:13.297Z,101141.88
2023-01-28T05:36:14.510Z,101150.13
2023-01-28T05:46:15.735Z,101156.00
2023-01-28T05:56:16.956Z,101164.84
2023-01-28T06:06:18.256Z,101173.72
2023-01-28T06:16:19.490Z,101188.84
2023-01-28T06:26:20.769Z,101197.59
2023-01-28T06:36:22.060Z,101222.41
2023-01-28T06:46:24.279Z,101223.13
2023-01-28T06:56:25.567Z,101230.03
2023-01-28T07:06:26.807Z,101244.13
2023-01-28T07:16:28.022Z,101245.13
2023-01-28T07:26:29.262Z,101250.06
2023-01-28T07:36:30.492Z,101249.13
2023-01-28T07:46:31.723Z,101266.19
2023-01-28T07:56:33.092Z,101273.09
2023-01-28T08:06:37.952Z,101283.41
2023-01-28T08:16:39.227Z,101297.16
2023-01-28T08:26:40.476Z,101288.38
2023-01-28T08:36:41.708Z,101297.34
2023-01-28T08:46:42.957Z,101293.50
2023-01-28T08:56:44.936Z,101292.06
2023-01-28T09:06:46.221Z,101307.06
2023-01-28T09:16:47.428Z,101303.66
2023-01-28T09:26:48.661Z,101314.47
2023-01-28T09:36:49.880Z,101319.56
2023-01-28T09:46:51.099Z,101324.75
2023-01-28T09:56:52.476Z,101346.44
2023-01-28T10:06:53.849Z,101347.78
2023-01-28T10:16:55.090Z,101348.53
2023-01-28T10:26:56.313Z,101335.38
2023-01-28T10:36:57.683Z,101333.03
2023-01-28T10:46:58.920Z,101334.00
2023-01-28T10:57:00.132Z,101337.28
2023-01-28T11:07:01.463Z,101351.25
2023-01-28T11:17:02.704Z,101347.94
2023-01-28T11:27:04.137Z,101349.50
2023-01-28T11:37:05.852Z,101353.69
2023-01-28T11:47:07.168Z,101360.44
2023-01-28T11:57:08.613Z,101352.34
2023-01-28T12:07:11.230Z,101348.59
2023-01-28T12:17:12.515Z,101336.16
2023-01-28T12:27:13.744Z,101331.34
2023-01-28T12:37:14.974Z,101333.22
2023-01-28T12:47:16.209Z,101322.25
2023-01-28T12:57:17.705Z,101324.44
2023-01-28T13:07:19.000Z,101310.78
2023-01-28T13:17:20.223Z,101321.22
2023-01-28T13:27:21.487Z,101334.09
2023-01-28T13:37:22.730Z,101327.31
2023-01-28T13:47:23.964Z,101335.97
2023-01-28T13:57:25.185Z,101341.13
2023-01-28T14:07:26.485Z,101362.81
2023-01-28T14:17:27.733Z,101372.09
2023-01-28T14:27:28.959Z,101388.47
2023-01-28T15:20:34.326Z,101420.03
2023-01-28T16:42:49.476Z,101447.28
2023-01-28T16:52:50.950Z,101449.69
2023-01-28T17:02:52.291Z,101482.16
2023-01-28T17:12:54.470Z,101475.78
2023-01-28T17:22:55.724Z,101487.50
2023-01-28T17:53:35.127Z,101510.03
2023-01-28T18:03:36.365Z,101517.13
2023-01-28T18:13:37.709Z,101526.97
2023-01-28T18:23:39.063Z,101541.44
2023-01-28T18:33:40.299Z,101552.34
2023-01-28T20:06:13.459Z,101613.31
2023-01-28T20:16:14.732Z,101614.06
2023-01-28T20:26:16.082Z,101629.78
2023-01-28T20:36:17.519Z,101627.50
2023-01-28T20:46:19.360Z,101627.75
2023-01-28T20:56:20.671Z,101630.91
2023-01-28T21:27:01.334Z,101648.13
2023-01-28T21:37:02.614Z,101653.78
2023-01-28T21:47:03.880Z,101647.28
2023-01-28T21:57:05.146Z,101652.75
2023-01-28T22:07:06.475Z,101658.00
2023-01-28T23:50:18.765Z,101614.31
